Time;durP1;ratioP1;P1;durP2;ratioP2;P2;SDS_P1;SDS_P2;PMS_P1;PMS_P2;Temp;Humidity;BMP_temperature;BMP_pressure;BME280_temperature;BME280_humidity;BME280_pressure;Samples;Min_cycle;Max_cycle;Signal;HPM_P1;HPM_P2
2023/06/17 00:00:41;;;;;;;18.15;15.95;;;14.30;99.90;;;;;;5093983;27;20458;-89
2023/06/17 00:03:07;;;;;;;15.25;13.75;;;14.40;99.90;;;;;;5094640;27;20423;-88
2023/06/17 00:05:32;;;;;;;15.63;14.13;;;14.40;99.90;;;;;;5094314;27;20421;-87
2023/06/17 00:07:58;;;;;;;15.30;13.80;;;14.40;99.90;;;;;;5094685;27;20485;-88
2023/06/17 00:10:23;;;;;;;15.50;14.00;;;14.50;99.90;;;;;;5094369;27;20413;-88
2023/06/17 00:12:49;;;;;;;17.43;15.73;;;14.50;99.90;;;;;;5094233;27;20444;-87
2023/06/17 00:15:16;;;;;;;15.23;13.63;;;14.60;99.90;;;;;;5111597;27;20953;-87
2023/06/17 00:17:46;;;;;;;19.00;15.70;;;14.60;99.90;;;;;;5093620;27;20451;-86
2023/06/17 00:20:13;;;;;;;22.50;20.35;;;14.60;99.90;;;;;;5094804;27;20763;-88
2023/06/17 00:22:40;;;;;;;15.05;13.55;;;14.60;99.90;;;;;;5110701;27;20993;-88
2023/06/17 00:25:07;;;;;;;18.40;16.57;;;14.60;99.90;;;;;;5111012;27;20402;-88
2023/06/17 00:27:33;;;;;;;18.80;17.00;;;14.70;99.90;;;;;;5111025;27;20409;-87
2023/06/17 00:29:59;;;;;;;18.05;16.25;;;14.70;99.90;;;;;;5093276;27;20485;-88
2023/06/17 00:32:29;;;;;;;18.80;16.80;;;14.70;99.90;;;;;;5094172;27;20439;-88
2023/06/17 00:34:54;;;;;;;17.08;15.27;;;14.70;99.90;;;;;;5093212;27;20405;-87
2023/06/17 00:37:21;;;;;;;19.87;17.80;;;14.80;99.90;;;;;;5111613;27;20776;-89
2023/06/17 00:39:47;;;;;;;17.33;15.52;;;14.90;99.90;;;;;;5092464;27;20394;-88
2023/06/17 00:42:12;;;;;;;18.07;16.17;;;14.80;99.90;;;;;;5093385;27;20770;-88
2023/06/17 00:44:41;;;;;;;21.23;18.80;;;14.90;99.90;;;;;;5093935;27;20414;-87
2023/06/17 00:47:08;;;;;;;23.15;20.02;;;15.10;99.90;;;;;;5093330;27;20406;-88
2023/06/17 00:49:36;;;;;;;22.35;20.00;;;15.00;99.90;;;;;;5094166;27;20443;-89
2023/06/17 00:52:04;;;;;;;25.80;23.08;;;15.00;99.90;;;;;;5093428;27;20716;-87
2023/06/17 00:54:31;;;;;;;20.38;18.27;;;15.00;99.90;;;;;;5093674;27;20387;-88
2023/06/17 00:57:02;;;;;;;23.15;20.17;;;15.10;99.90;;;;;;5092913;27;20439;-88
2023/06/17 00:59:32;;;;;;;28.75;25.67;;;15.20;99.90;;;;;;5093277;27;20399;-88
2023/06/17 01:01:58;;;;;;;25.35;22.48;;;15.40;99.90;;;;;;5093297;27;20399;-88
2023/06/17 01:04:24;;;;;;;30.85;27.75;;;15.60;99.90;;;;;;5092838;27;20391;-88
2023/06/17 01:07:04;;;;;;;28.50;24.73;;;15.40;99.90;;;;;;5093462;27;20755;-88
2023/06/17 01:09:35;;;;;;;35.63;29.87;;;15.50;99.90;;;;;;5092488;27;20425;-87
2023/06/17 01:12:04;;;;;;;31.27;27.98;;;15.60;99.90;;;;;;5093226;27;20422;-89
2023/06/17 01:14:32;;;;;;;30.88;27.58;;;15.50;99.90;;;;;;5093247;27;20391;-88
2023/06/17 01:16:59;;;;;;;31.38;28.13;;;15.60;99.90;;;;;;5093158;27;20428;-88
2023/06/17 01:19:26;;;;;;;33.70;30.00;;;15.70;99.90;;;;;;5093288;27;20413;-88
2023/06/17 01:21:53;;;;;;;32.15;28.65;;;15.70;99.90;;;;;;5109491;27;20755;-89
2023/06/17 01:24:33;;;;;;;31.50;28.23;;;15.70;99.90;;;;;;5093529;27;20398;-88
2023/06/17 01:27:02;;;;;;;31.75;27.85;;;15.70;99.90;;;;;;5109302;27;20409;-87
2023/06/17 01:29:29;;;;;;;28.90;25.48;;;15.70;99.90;;;;;;5092761;27;20403;-89
2023/06/17 01:32:02;;;;;;;32.58;28.85;;;16.10;99.90;;;;;;5092432;27;20402;-88
2023/06/17 01:34:41;;;;;;;34.05;29.73;;;15.80;99.90;;;;;;5092393;27;20927;-88
2023/06/17 01:37:11;;;;;;;32.20;28.88;;;15.80;99.90;;;;;;5092867;27;20395;-89
2023/06/17 01:39:43;;;;;;;33.88;30.40;;;15.80;99.90;;;;;;5092499;27;20399;-88
2023/06/17 01:42:15;;;;;;;35.47;31.57;;;15.80;99.90;;;;;;5092730;27;20975;-89
2023/06/17 01:44:42;;;;;;;37.50;33.55;;;15.90;99.90;;;;;;5091878;27;20405;-88
2023/06/17 01:47:10;;;;;;;37.92;33.97;;;15.90;99.90;;;;;;5092272;27;20478;-89
2023/06/17 01:49:37;;;;;;;41.90;37.60;;;16.00;99.90;;;;;;5092351;27;20804;-88
2023/06/17 01:52:04;;;;;;;38.17;34.45;;;16.00;99.90;;;;;;5091796;27;20403;-87
2023/06/17 01:54:30;;;;;;;41.75;37.38;;;15.90;99.90;;;;;;5092701;27;20402;-87
2023/06/17 01:56:55;;;;;;;38.07;34.13;;;15.90;99.90;;;;;;5091693;27;20785;-88
2023/06/17 01:59:21;;;;;;;36.20;32.42;;;15.90;99.90;;;;;;5092358;27;20492;-87
2023/06/17 02:01:46;;;;;;;31.97;28.73;;;16.00;99.90;;;;;;5091344;27;20933;-88
2023/06/17 02:04:12;;;;;;;34.65;31.13;;;16.00;99.90;;;;;;5091734;27;20406;-88
2023/06/17 02:06:39;;;;;;;38.40;34.33;;;15.90;99.90;;;;;;5091991;27;20489;-88
2023/06/17 02:09:05;;;;;;;30.00;26.95;;;16.00;99.90;;;;;;5091891;27;20915;-88
2023/06/17 02:11:31;;;;;;;36.53;32.90;;;16.00;99.90;;;;;;5109353;27;20501;-89
2023/06/17 02:13:57;;;;;;;35.05;31.48;;;16.00;99.90;;;;;;5091799;27;20884;-88
2023/06/17 02:16:23;;;;;;;36.37;32.73;;;16.00;99.90;;;;;;5092112;27;20399;-89
2023/06/17 02:18:52;;;;;;;38.17;34.33;;;16.10;99.90;;;;;;5091581;27;20415;-88
2023/06/17 02:21:18;;;;;;;36.87;33.13;;;16.10;99.90;;;;;;5108914;27;20403;-88
2023/06/17 02:23:48;;;;;;;36.80;33.03;;;16.00;99.90;;;;;;5091210;27;20426;-88
2023/06/17 02:26:15;;;;;;;36.88;33.25;;;16.20;99.90;;;;;;5108063;27;20402;-88
2023/06/17 02:28:42;;;;;;;37.05;33.15;;;16.10;99.90;;;;;;5091857;27;20407;-88
2023/06/17 02:31:08;;;;;;;35.38;31.65;;;16.10;99.90;;;;;;5107990;27;20407;-89
2023/06/17 02:33:35;;;;;;;31.80;28.37;;;16.00;99.90;;;;;;5091938;27;20577;-88
2023/06/17 02:36:00;;;;;;;35.20;31.43;;;16.10;99.90;;;;;;5091057;27;20406;-87
2023/06/17 02:38:26;;;;;;;33.85;30.33;;;16.00;99.90;;;;;;5108554;28;20403;-88
2023/06/17 02:40:52;;;;;;;33.97;30.50;;;16.00;99.90;;;;;;5090971;28;20405;-88
2023/06/17 02:43:17;;;;;;;33.63;30.13;;;16.00;99.90;;;;;;5091413;28;20826;-88
2023/06/17 02:45:43;;;;;;;31.80;28.45;;;16.10;99.90;;;;;;5091239;27;20427;-89
2023/06/17 02:48:09;;;;;;;29.17;26.20;;;15.90;99.90;;;;;;5090956;28;20398;-88
2023/06/17 02:50:35;;;;;;;32.75;29.48;;;15.90;99.90;;;;;;5092074;27;20410;-89
2023/06/17 02:53:04;;;;;;;33.50;29.90;;;15.90;99.90;;;;;;5107621;27;20395;-88
2023/06/17 02:55:30;;;;;;;34.42;30.80;;;15.80;99.90;;;;;;5091210;28;20391;-88
2023/06/17 02:57:56;;;;;;;36.27;32.53;;;15.90;99.90;;;;;;5091040;28;20401;-88
2023/06/17 03:00:22;;;;;;;34.97;31.47;;;15.90;99.90;;;;;;5108174;28;20528;-88
2023/06/17 03:02:48;;;;;;;35.93;31.63;;;15.80;99.90;;;;;;5093995;27;20423;-88
2023/06/17 03:05:14;;;;;;;31.95;28.75;;;15.80;99.90;;;;;;5095288;27;20497;-88
2023/06/17 03:07:40;;;;;;;29.35;26.48;;;15.80;99.90;;;;;;5095765;27;20425;-88
2023/06/17 03:10:07;;;;;;;35.57;31.83;;;15.70;99.90;;;;;;5095211;27;20490;-88
2023/06/17 03:12:32;;;;;;;31.50;28.38;;;15.80;99.90;;;;;;5095635;27;20458;-89
2023/06/17 03:14:58;;;;;;;31.53;28.27;;;15.90;99.90;;;;;;5094696;27;20411;-89
2023/06/17 03:17:24;;;;;;;35.38;31.67;;;15.80;99.90;;;;;;5095432;27;20398;-88
2023/06/17 03:19:50;;;;;;;38.72;33.47;;;15.90;99.90;;;;;;5095014;27;20402;-87
2023/06/17 03:22:16;;;;;;;33.10;29.67;;;15.70;99.90;;;;;;5094594;27;20426;-88
2023/06/17 03:24:42;;;;;;;35.80;32.00;;;15.80;99.90;;;;;;5112292;27;20547;-88
2023/06/17 03:27:08;;;;;;;37.23;33.40;;;15.90;99.90;;;;;;5094422;27;20961;-88
2023/06/17 03:29:36;;;;;;;37.13;33.25;;;15.60;99.90;;;;;;5094934;27;20757;-88
2023/06/17 03:32:02;;;;;;;38.75;34.78;;;15.80;99.90;;;;;;5094370;27;20409;-88
2023/06/17 03:34:28;;;;;;;36.78;32.97;;;15.70;99.90;;;;;;5094800;27;20784;-88
2023/06/17 03:36:53;;;;;;;36.70;32.77;;;15.70;99.90;;;;;;5094985;27;20793;-88
2023/06/17 03:39:19;;;;;;;34.83;31.25;;;15.70;99.90;;;;;;5094761;27;20395;-88
2023/06/17 03:41:45;;;;;;;36.40;32.57;;;15.70;99.90;;;;;;5094769;27;20395;-88
2023/06/17 03:44:10;;;;;;;31.02;27.83;;;15.70;99.90;;;;;;5094093;27;20817;-89
2023/06/17 03:46:36;;;;;;;32.33;29.00;;;15.80;99.90;;;;;;5095514;27;20405;-87
2023/06/17 03:49:02;;;;;;;32.50;29.30;;;15.70;99.90;;;;;;5094320;27;20407;-88
2023/06/17 03:51:28;;;;;;;32.42;29.05;;;15.70;99.90;;;;;;5094690;27;20768;-89
2023/06/17 03:53:53;;;;;;;32.33;29.07;;;15.70;99.90;;;;;;5111557;27;20750;-87
2023/06/17 03:56:19;;;;;;;33.42;30.05;;;15.70;99.90;;;;;;5111890;27;20394;-88
2023/06/17 03:58:45;;;;;;;36.10;32.30;;;15.80;99.90;;;;;;5094715;27;20390;-88
2023/06/17 04:01:12;;;;;;;37.55;33.75;;;16.00;99.90;;;;;;5094054;27;20399;-88
2023/06/17 04:03:40;;;;;;;36.15;32.58;;;15.80;99.90;;;;;;5094724;27;20479;-87
2023/06/17 04:06:06;;;;;;;35.15;31.65;;;15.80;99.90;;;;;;5093705;27;20422;-88
2023/06/17 04:08:33;;;;;;;38.15;34.25;;;15.80;99.90;;;;;;5094441;27;20407;-88
2023/06/17 04:10:59;;;;;;;38.78;34.78;;;15.80;99.90;;;;;;5094221;27;20743;-87
2023/06/17 04:13:25;;;;;;;35.47;31.97;;;15.80;99.90;;;;;;5094182;27;20508;-88
2023/06/17 04:15:51;;;;;;;34.50;30.85;;;15.80;99.90;;;;;;5111074;27;20874;-88
2023/06/17 04:18:16;;;;;;;36.97;33.40;;;16.00;99.90;;;;;;5110560;27;20399;-88
2023/06/17 04:20:44;;;;;;;37.93;34.03;;;15.90;99.90;;;;;;5094358;27;20414;-87
2023/06/17 04:23:09;;;;;;;41.13;37.00;;;15.90;99.90;;;;;;5093826;27;20423;-88
2023/06/17 04:25:36;;;;;;;41.80;37.40;;;16.00;99.90;;;;;;5094052;27;20561;-88
2023/06/17 04:28:07;;;;;;;41.88;37.63;;;16.00;99.90;;;;;;5093544;27;20402;-88
2023/06/17 04:30:33;;;;;;;40.17;36.38;;;16.00;99.90;;;;;;5089986;28;20416;-89
2023/06/17 04:33:00;;;;;;;42.30;37.75;;;16.10;99.90;;;;;;5090430;28;20400;-88
2023/06/17 04:35:26;;;;;;;39.17;35.38;;;16.10;99.90;;;;;;5090503;28;20487;-88
2023/06/17 04:37:56;;;;;;;36.90;33.33;;;16.10;99.90;;;;;;5090669;28;20397;-88
2023/06/17 04:40:25;;;;;;;33.30;29.90;;;16.10;99.90;;;;;;5107323;28;20400;-89
2023/06/17 04:42:52;;;;;;;34.70;31.23;;;16.10;99.90;;;;;;5090741;28;20440;-89
2023/06/17 04:45:18;;;;;;;33.08;29.77;;;16.00;99.90;;;;;;5089933;28;20401;-88
2023/06/17 04:47:46;;;;;;;31.95;28.92;;;16.20;99.90;;;;;;5090378;28;20948;-88
2023/06/17 04:50:16;;;;;;;32.15;28.85;;;16.20;99.90;;;;;;5089781;28;20431;-88
2023/06/17 04:52:47;;;;;;;32.77;29.37;;;16.10;99.90;;;;;;5089640;28;20416;-89
2023/06/17 04:55:13;;;;;;;33.70;30.37;;;16.10;99.90;;;;;;5107459;28;20768;-88
2023/06/17 04:57:43;;;;;;;33.35;30.08;;;16.00;99.90;;;;;;5106701;28;20403;-88
2023/06/17 05:00:10;;;;;;;32.13;29.02;;;16.10;99.90;;;;;;5090108;28;20401;-88
2023/06/17 05:02:39;;;;;;;30.63;27.52;;;16.20;99.90;;;;;;5089556;28;20424;-89
2023/06/17 05:05:06;;;;;;;29.77;26.65;;;16.50;99.90;;;;;;5089554;28;20448;-88
2023/06/17 05:07:32;;;;;;;29.33;26.42;;;16.30;99.90;;;;;;5089904;28;20475;-88
2023/06/17 05:09:58;;;;;;;31.55;28.20;;;16.50;99.90;;;;;;5089538;28;20930;-88
2023/06/17 05:12:23;;;;;;;30.50;27.50;;;16.40;99.90;;;;;;5089704;28;20401;-89
2023/06/17 05:14:49;;;;;;;30.97;27.87;;;16.60;99.90;;;;;;5106324;28;20462;-88
2023/06/17 05:17:14;;;;;;;29.17;26.17;;;16.50;99.90;;;;;;5090069;28;20407;-88
2023/06/17 05:19:40;;;;;;;31.00;27.80;;;16.50;99.90;;;;;;5089416;28;20413;-88
2023/06/17 05:22:06;;;;;;;30.13;27.23;;;16.50;99.90;;;;;;5089497;28;20409;-88
2023/06/17 05:24:31;;;;;;;30.63;27.53;;;16.60;99.90;;;;;;5088495;28;20783;-88
2023/06/17 05:26:57;;;;;;;28.63;25.67;;;16.70;99.90;;;;;;5089658;28;20400;-88
2023/06/17 05:29:23;;;;;;;29.13;26.03;;;16.70;99.90;;;;;;5090628;27;20503;-88
2023/06/17 05:31:48;;;;;;;25.27;22.67;;;16.70;99.90;;;;;;5092445;27;20426;-87
2023/06/17 05:34:14;;;;;;;27.70;25.00;;;16.70;99.90;;;;;;5109766;27;20744;-88
2023/06/17 05:36:40;;;;;;;27.67;24.98;;;16.80;99.90;;;;;;5092168;27;20402;-89
2023/06/17 05:39:05;;;;;;;25.13;22.50;;;16.80;99.90;;;;;;5092624;27;20428;-89
2023/06/17 05:41:31;;;;;;;25.50;23.05;;;16.90;99.90;;;;;;5092513;27;20394;-88
2023/06/17 05:43:57;;;;;;;24.90;22.50;;;16.70;99.90;;;;;;5092532;27;20967;-89
2023/06/17 05:46:22;;;;;;;24.48;22.08;;;16.60;99.90;;;;;;5092954;27;20402;-88
2023/06/17 05:48:48;;;;;;;24.33;21.83;;;16.70;99.90;;;;;;5092295;27;20507;-88
2023/06/17 05:51:16;;;;;;;25.05;22.15;;;16.80;99.90;;;;;;5093005;27;20763;-88
2023/06/17 05:53:42;;;;;;;26.52;23.70;;;16.60;99.90;;;;;;5109403;27;20402;-88
2023/06/17 05:56:11;;;;;;;24.80;22.30;;;16.90;99.90;;;;;;5109758;27;20391;-89
2023/06/17 05:58:37;;;;;;;25.83;23.23;;;16.90;99.90;;;;;;5091895;27;20394;-87
2023/06/17 06:01:03;;;;;;;24.27;21.87;;;16.90;99.90;;;;;;5109510;27;20973;-88
2023/06/17 06:03:28;;;;;;;25.35;22.80;;;17.10;99.90;;;;;;5092155;27;20418;-88
2023/06/17 06:05:54;;;;;;;25.17;22.65;;;16.90;99.90;;;;;;5092020;27;20535;-88
2023/06/17 06:08:20;;;;;;;25.57;22.90;;;17.30;99.90;;;;;;5092279;27;20897;-88
2023/06/17 06:10:46;;;;;;;24.95;22.40;;;17.10;99.90;;;;;;5092369;27;20413;-88
2023/06/17 06:13:11;;;;;;;26.30;23.37;;;17.20;99.90;;;;;;5109128;27;20406;-89
2023/06/17 06:15:37;;;;;;;25.42;22.77;;;17.40;99.90;;;;;;5108429;27;20402;-88
2023/06/17 06:18:03;;;;;;;24.43;22.03;;;17.10;99.90;;;;;;5109264;27;20502;-88
2023/06/17 06:20:29;;;;;;;24.02;21.70;;;17.00;99.90;;;;;;5091700;27;20398;-88
2023/06/17 06:22:54;;;;;;;23.80;21.30;;;17.30;99.90;;;;;;5091622;27;20431;-88
2023/06/17 06:25:20;;;;;;;24.52;22.02;;;17.50;99.90;;;;;;5091587;27;20901;-88
2023/06/17 06:27:48;;;;;;;22.15;19.85;;;17.50;99.90;;;;;;5108629;27;20422;-88
2023/06/17 06:30:13;;;;;;;24.60;20.77;;;17.60;99.90;;;;;;5088616;28;20893;-88
2023/06/17 06:32:39;;;;;;;23.42;20.92;;;17.60;99.90;;;;;;5087734;28;20396;-88
2023/06/17 06:35:05;;;;;;;21.93;19.73;;;17.70;99.90;;;;;;5088587;28;20515;-87
2023/06/17 06:37:31;;;;;;;20.65;18.52;;;17.70;99.90;;;;;;5086778;28;20435;-88
2023/06/17 06:39:56;;;;;;;23.70;21.07;;;17.70;99.90;;;;;;5088265;28;20904;-88
2023/06/17 06:42:22;;;;;;;23.00;19.63;;;17.90;99.90;;;;;;5088159;28;20499;-88
2023/06/17 06:44:49;;;;;;;21.33;19.13;;;18.20;99.90;;;;;;5087865;28;20396;-88
2023/06/17 06:47:14;;;;;;;21.27;19.05;;;18.30;99.90;;;;;;5088575;28;20895;-88
2023/06/17 06:49:40;;;;;;;21.77;19.47;;;18.20;99.90;;;;;;5104455;28;20415;-88
2023/06/17 06:52:06;;;;;;;22.35;19.90;;;18.20;99.90;;;;;;5105326;28;20900;-87
2023/06/17 06:54:31;;;;;;;20.90;18.53;;;18.30;99.90;;;;;;5104557;28;20519;-88
2023/06/17 06:56:57;;;;;;;20.15;17.88;;;18.40;99.90;;;;;;5088037;28;20447;-89
2023/06/17 06:59:22;;;;;;;21.17;18.60;;;18.70;99.90;;;;;;5087923;28;20777;-88
2023/06/17 07:01:48;;;;;;;19.87;16.87;;;18.90;99.90;;;;;;5105038;28;20409;-89
2023/06/17 07:04:14;;;;;;;21.02;17.55;;;18.90;99.90;;;;;;5087741;28;21004;-89
2023/06/17 07:06:40;;;;;;;19.73;17.70;;;19.10;99.90;;;;;;5087223;28;20396;-88
2023/06/17 07:09:06;;;;;;;18.57;15.80;;;19.10;99.90;;;;;;5088567;28;20392;-88
2023/06/17 07:11:32;;;;;;;18.02;16.13;;;19.20;99.90;;;;;;5087139;28;20495;-88
2023/06/17 07:13:57;;;;;;;19.67;17.00;;;19.30;99.90;;;;;;5087873;28;20408;-88
2023/06/17 07:16:23;;;;;;;17.93;15.83;;;19.40;99.90;;;;;;5087307;28;20915;-88
2023/06/17 07:18:48;;;;;;;17.67;15.93;;;19.60;99.90;;;;;;5104922;28;20428;-88
2023/06/17 07:21:14;;;;;;;17.60;15.73;;;19.80;99.90;;;;;;5087883;28;20842;-88
2023/06/17 07:23:40;;;;;;;16.97;15.27;;;19.90;99.90;;;;;;5087335;28;20432;-88
2023/06/17 07:26:06;;;;;;;18.85;15.80;;;19.90;99.90;;;;;;5105100;28;20396;-89
2023/06/17 07:28:32;;;;;;;16.35;14.65;;;20.10;99.90;;;;;;5087463;28;20446;-88
2023/06/17 07:30:58;;;;;;;16.47;14.50;;;20.10;99.90;;;;;;5104768;28;20400;-87
2023/06/17 07:33:25;;;;;;;15.85;14.27;;;20.10;99.90;;;;;;5104127;28;20476;-87
2023/06/17 07:35:50;;;;;;;15.60;13.95;;;20.20;99.90;;;;;;5087256;28;20404;-88
2023/06/17 07:38:16;;;;;;;17.57;15.40;;;20.40;99.90;;;;;;5103940;28;20408;-88
2023/06/17 07:40:42;;;;;;;16.08;14.27;;;20.70;99.90;;;;;;5087027;28;20499;-88
2023/06/17 07:43:09;;;;;;;15.53;13.90;;;21.10;99.90;;;;;;5104400;28;20428;-88
2023/06/17 07:45:35;;;;;;;17.25;13.05;;;21.60;99.90;;;;;;5087011;28;20470;-89
2023/06/17 07:48:00;;;;;;;17.35;13.55;;;21.70;99.90;;;;;;5088816;28;20408;-88
2023/06/17 07:50:26;;;;;;;13.93;12.53;;;21.90;99.90;;;;;;5090934;28;20888;-88
2023/06/17 07:52:52;;;;;;;14.10;12.67;;;22.10;99.90;;;;;;5108271;28;20449;-89
2023/06/17 07:55:18;;;;;;;12.80;11.50;;;22.00;99.90;;;;;;5091022;28;20407;-88
2023/06/17 07:57:44;;;;;;;14.40;12.90;;;22.20;99.90;;;;;;5108042;28;20392;-88
2023/06/17 08:00:13;;;;;;;14.73;12.48;;;22.20;99.90;;;;;;5090759;28;20397;-88
2023/06/17 08:02:42;;;;;;;12.85;11.55;;;22.30;99.90;;;;;;5090784;28;20469;-87
2023/06/17 08:05:09;;;;;;;14.43;12.23;;;22.30;99.90;;;;;;5107987;28;20396;-87
2023/06/17 08:07:35;;;;;;;14.13;12.60;;;22.50;99.90;;;;;;5107146;28;20388;-88
2023/06/17 08:10:00;;;;;;;13.90;11.82;;;22.60;99.90;;;;;;5107981;28;20460;-88
2023/06/17 08:12:26;;;;;;;16.23;12.65;;;22.70;99.90;;;;;;5090430;28;20808;-88
2023/06/17 08:14:52;;;;;;;15.50;12.60;;;22.90;99.90;;;;;;5090590;28;20400;-88
2023/06/17 08:17:18;;;;;;;14.18;12.15;;;22.80;99.90;;;;;;5107572;28;20392;-87
2023/06/17 08:19:43;;;;;;;12.73;11.27;;;22.80;99.90;;;;;;5107725;28;20537;-88
2023/06/17 08:22:10;;;;;;;14.48;12.90;;;23.00;99.90;;;;;;5090646;28;20408;-88
2023/06/17 08:24:36;;;;;;;14.33;12.80;;;23.10;99.90;;;;;;5090533;28;20770;-87
2023/06/17 08:27:04;;;;;;;14.43;12.07;;;22.90;99.90;;;;;;5090769;28;20959;-88
2023/06/17 08:29:31;;;;;;;13.68;12.35;;;22.70;99.90;;;;;;5092157;27;20396;-88
2023/06/17 08:31:56;;;;;;;14.80;12.80;;;22.80;99.90;;;;;;5110908;27;20430;-88
2023/06/17 08:34:22;;;;;;;13.23;11.93;;;23.00;99.90;;;;;;5093445;27;20569;-87
2023/06/17 08:36:54;;;;;;;14.40;12.90;;;23.00;99.90;;;;;;5128546;27;20399;-89
2023/06/17 08:39:20;;;;;;;14.10;11.75;;;23.10;99.90;;;;;;5094090;27;20540;-89
2023/06/17 08:41:46;;;;;;;15.25;12.75;;;23.10;99.90;;;;;;5110415;27;20833;-88
2023/06/17 08:44:13;;;;;;;14.10;12.57;;;23.10;99.90;;;;;;5110769;27;20422;-88
2023/06/17 08:46:41;;;;;;;15.52;12.57;;;23.20;99.90;;;;;;5092824;27;20410;-88
2023/06/17 08:49:07;;;;;;;13.73;12.10;;;23.30;99.90;;;;;;5093215;27;20487;-87
2023/06/17 08:51:34;;;;;;;13.82;12.40;;;23.40;99.90;;;;;;5109690;27;20502;-87
2023/06/17 08:54:01;;;;;;;14.30;12.93;;;23.60;99.90;;;;;;5092848;27;20401;-88
2023/06/17 08:56:27;;;;;;;13.27;11.98;;;23.60;99.90;;;;;;5110574;27;20418;-87
2023/06/17 08:58:55;;;;;;;13.27;10.83;;;23.50;99.90;;;;;;5092611;27;20990;-87
2023/06/17 09:01:25;;;;;;;13.30;11.70;;;23.80;99.90;;;;;;5109849;27;20914;-88
2023/06/17 09:03:52;;;;;;;12.97;11.67;;;23.70;99.90;;;;;;5092610;27;20414;-88
2023/06/17 09:06:28;;;;;;;12.23;11.03;;;23.80;99.90;;;;;;5109933;27;20406;-88
2023/06/17 09:08:57;;;;;;;13.30;11.27;;;24.00;98.90;;;;;;5092867;27;20406;-88
2023/06/17 09:11:28;;;;;;;13.38;11.98;;;24.10;99.90;;;;;;5109609;27;20406;-88
2023/06/17 09:13:55;;;;;;;12.63;11.15;;;24.10;99.90;;;;;;5109986;27;20481;-87
2023/06/17 09:16:31;;;;;;;14.13;11.23;;;24.30;99.90;;;;;;5127546;27;20596;-87
2023/06/17 09:19:01;;;;;;;13.18;11.90;;;24.30;99.90;;;;;;5110012;27;20440;-87
2023/06/17 09:21:27;;;;;;;12.60;10.80;;;24.30;99.70;;;;;;5092220;27;20455;-87
2023/06/17 09:24:00;;;;;;;13.07;10.85;;;24.50;99.70;;;;;;5127940;27;20475;-88
2023/06/17 09:26:41;;;;;;;13.07;11.77;;;24.60;97.60;;;;;;5092541;27;20446;-88
2023/06/17 09:29:09;;;;;;;13.27;11.87;;;24.70;98.00;;;;;;5109259;27;20787;-88
2023/06/17 09:31:52;;;;;;;12.45;10.88;;;24.80;96.70;;;;;;5109246;27;20502;-88
2023/06/17 09:34:19;;;;;;;12.90;10.25;;;25.00;98.40;;;;;;5108741;27;20413;-88
2023/06/17 09:36:46;;;;;;;12.05;10.75;;;25.20;96.60;;;;;;5109536;27;20395;-87
2023/06/17 09:39:13;;;;;;;12.43;10.23;;;25.30;99.20;;;;;;5108955;27;20406;-87
2023/06/17 09:41:43;;;;;;;12.18;10.30;;;25.50;97.10;;;;;;5092128;27;20471;-88
2023/06/17 09:44:10;;;;;;;11.20;10.00;;;25.40;97.10;;;;;;5109602;27;20414;-88
2023/06/17 09:46:39;;;;;;;10.63;9.52;;;25.40;95.20;;;;;;5091424;27;20473;-88
2023/06/17 09:49:14;;;;;;;12.18;9.27;;;25.30;93.90;;;;;;5109237;27;20485;-88
2023/06/17 09:51:41;;;;;;;11.70;9.55;;;25.30;93.70;;;;;;5108974;27;20788;-88
2023/06/17 09:54:08;;;;;;;12.93;9.93;;;25.60;96.70;;;;;;5108875;27;20506;-89
2023/06/17 09:56:34;;;;;;;12.77;9.38;;;25.80;93.30;;;;;;5091937;27;20493;-89
2023/06/17 09:59:03;;;;;;;12.47;9.20;;;26.00;94.30;;;;;;5091343;27;20391;-88
2023/06/17 10:01:32;;;;;;;11.30;9.15;;;26.20;96.90;;;;;;5109098;27;20402;-87
2023/06/17 10:04:02;;;;;;;11.48;8.93;;;26.40;94.40;;;;;;5108049;27;20419;-87
2023/06/17 10:06:34;;;;;;;11.10;8.07;;;26.50;92.70;;;;;;5108846;27;20395;-89
2023/06/17 10:09:06;;;;;;;10.87;8.63;;;26.60;92.20;;;;;;5126672;27;20398;-89
2023/06/17 10:11:34;;;;;;;9.85;7.90;;;26.70;82.70;;;;;;5108546;27;20691;-89
2023/06/17 10:14:01;;;;;;;9.13;8.07;;;26.90;91.00;;;;;;5108797;27;20507;-88
2023/06/17 10:16:31;;;;;;;8.80;7.55;;;27.00;71.10;;;;;;5108187;27;20406;-88
2023/06/17 10:19:00;;;;;;;10.65;7.80;;;27.10;75.80;;;;;;5108963;27;20395;-89
2023/06/17 10:21:28;;;;;;;10.25;8.55;;;27.30;82.60;;;;;;5107942;27;20909;-87
2023/06/17 10:23:56;;;;;;;10.05;8.70;;;27.50;72.50;;;;;;5108409;27;20422;-88
2023/06/17 10:26:22;;;;;;;10.57;8.53;;;27.70;72.70;;;;;;5107906;27;20395;-88
2023/06/17 10:29:01;;;;;;;8.85;7.95;;;28.10;83.30;;;;;;5090900;27;20409;-89
2023/06/17 10:31:31;;;;;;;12.37;8.70;;;28.40;74.60;;;;;;5108045;27;20399;-88
2023/06/17 10:34:01;;;;;;;11.33;9.37;;;28.50;62.60;;;;;;5107594;27;20478;-87
2023/06/17 10:36:27;;;;;;;11.02;9.30;;;28.60;62.00;;;;;;5091556;27;20414;-88
2023/06/17 10:38:55;;;;;;;10.20;8.90;;;28.60;71.70;;;;;;5107572;27;20403;-89
2023/06/17 10:41:21;;;;;;;11.07;9.23;;;28.90;77.40;;;;;;5108243;27;20902;-90
2023/06/17 10:43:49;;;;;;;11.18;9.43;;;28.90;61.30;;;;;;5090950;27;20437;-89
2023/06/17 10:46:23;;;;;;;10.35;8.13;;;29.10;62.00;;;;;;5107749;27;20403;-89
2023/06/17 10:48:49;;;;;;;10.90;9.80;;;29.30;71.80;;;;;;5108771;27;20922;-89
2023/06/17 10:51:15;;;;;;;10.57;8.77;;;29.70;58.10;;;;;;5126443;27;20391;-88
2023/06/17 10:53:47;;;;;;;9.85;8.85;;;30.30;61.40;;;;;;5091172;27;20426;-88
2023/06/17 10:56:13;;;;;;;9.40;8.38;;;30.30;56.60;;;;;;5090647;27;20394;-88
2023/06/17 10:58:45;;;;;;;9.97;8.97;;;30.70;55.20;;;;;;5090888;28;20410;-90
2023/06/17 11:01:11;;;;;;;10.60;9.50;;;30.60;51.90;;;;;;5090738;28;20406;-90
2023/06/17 11:03:38;;;;;;;10.50;9.40;;;30.30;50.70;;;;;;5090572;28;20909;-89
2023/06/17 11:06:05;;;;;;;11.02;8.75;;;30.30;50.90;;;;;;5091138;28;20418;-89
2023/06/17 11:08:33;;;;;;;10.00;8.50;;;30.50;55.20;;;;;;5091202;28;20530;-88
2023/06/17 11:11:25;;;;;;;11.73;9.25;;;30.80;54.40;;;;;;5091019;28;20395;-88
2023/06/17 11:13:51;;;;;;;10.00;8.75;;;31.00;54.50;;;;;;5087066;28;20865;-88
2023/06/17 11:16:18;;;;;;;9.10;8.20;;;30.90;55.90;;;;;;5108172;28;20433;-89
2023/06/17 11:18:47;;;;;;;8.85;7.93;;;31.10;51.90;;;;;;5108152;28;21098;-88
2023/06/17 11:21:15;;;;;;;8.90;7.85;;;30.90;52.00;;;;;;5107359;28;20662;-91
2023/06/17 11:23:43;;;;;;;9.13;8.23;;;31.10;50.70;;;;;;5110348;27;20509;-89
2023/06/17 11:26:09;;;;;;;8.63;7.75;;;31.20;46.90;;;;;;5111424;27;20391;-89
2023/06/17 11:28:35;;;;;;;10.75;8.52;;;31.50;50.00;;;;;;5112205;27;20933;-89
2023/06/17 11:31:01;;;;;;;10.27;8.15;;;31.70;46.20;;;;;;5093888;27;20432;-90
2023/06/17 11:33:28;;;;;;;7.55;6.85;;;31.70;45.20;;;;;;5094625;27;20395;-89
2023/06/17 11:35:54;;;;;;;7.38;6.68;;;31.70;49.40;;;;;;5094581;27;20443;-89
2023/06/17 11:38:24;;;;;;;8.30;6.72;;;32.10;47.80;;;;;;5094234;27;20473;-88
2023/06/17 11:40:57;;;;;;;7.63;6.90;;;32.10;46.50;;;;;;5111767;27;20405;-88
2023/06/17 11:43:27;;;;;;;9.07;8.00;;;32.10;45.70;;;;;;5111010;27;20875;-89
2023/06/17 11:45:57;;;;;;;8.50;7.60;;;32.20;44.30;;;;;;5111426;27;20423;-89
2023/06/17 11:48:32;;;;;;;6.90;6.20;;;32.40;44.80;;;;;;5111320;27;20407;-89
2023/06/17 11:50:58;;;;;;;9.00;7.57;;;32.40;45.10;;;;;;5111333;27;20643;-88
2023/06/17 11:53:37;;;;;;;7.70;6.90;;;32.70;44.70;;;;;;5094449;27;20391;-89
2023/06/17 11:56:08;;;;;;;7.70;6.93;;;32.80;43.20;;;;;;5094101;27;20933;-89
2023/06/17 11:58:37;;;;;;;7.50;6.70;;;33.00;42.70;;;;;;5111630;27;20414;-89
2023/06/17 12:01:03;;;;;;;7.00;6.18;;;33.00;40.20;;;;;;5110546;27;20439;-88
2023/06/17 12:03:29;;;;;;;7.63;6.83;;;33.20;42.50;;;;;;5111062;27;20423;-89
2023/06/17 12:05:57;;;;;;;7.97;7.28;;;33.50;40.10;;;;;;5093852;27;20403;-88
2023/06/17 12:08:23;;;;;;;8.18;7.38;;;33.60;41.50;;;;;;5111336;27;20432;-90
2023/06/17 12:10:49;;;;;;;8.77;7.97;;;33.60;40.60;;;;;;5094361;27;20402;-89
2023/06/17 12:13:16;;;;;;;8.82;7.00;;;33.40;38.50;;;;;;5110584;27;20404;-89
2023/06/17 12:15:42;;;;;;;8.02;6.68;;;33.50;42.80;;;;;;5111481;27;20948;-89
2023/06/17 12:18:12;;;;;;;8.00;7.30;;;33.60;39.80;;;;;;5093820;27;20394;-89
2023/06/17 12:20:48;;;;;;;6.93;6.18;;;33.50;41.60;;;;;;5093822;27;20403;-90
2023/06/17 12:23:14;;;;;;;8.38;6.63;;;33.60;38.50;;;;;;5094106;27;20423;-89
2023/06/17 12:25:40;;;;;;;6.93;6.22;;;33.70;38.60;;;;;;5110250;27;20394;-90
2023/06/17 12:28:06;;;;;;;8.10;6.87;;;33.80;40.90;;;;;;5093992;27;20486;-90
2023/06/17 12:30:33;;;;;;;7.03;6.22;;;33.80;40.40;;;;;;5092969;27;20410;-89